Wisconsin Rapids, Wisconsin
Current Conditions -  °F | °C
As of 2:54 PM on Tuesday 21 Oct 2014 (Local Time) from KISW Reporting Station
Clear Clear  
Wind Chill: 10°   Ceiling: Unl
Heat Index: 10°   Visibility: 10mi
Dew Point:   Wind: 0mph
Humidity: 57%   Direction: NA
Pressure: 30.24"   Gusts: NA
Location:  44.39°N, 89.82°W
Report Text: KISW 211954Z AUTO 00000KT 10SM CLR 10/02 A3024 RMK AO2 SLP245 T01000017
Loading
Personal Weather Stations






























Interactive Weather Map
Tropical Storm Tracking
New forecast layout! Learn more

10-Day Weather Forecast

Advertisements
Track Severe Weather on mobile